Time;durP1;ratioP1;P1;durP2;ratioP2;P2;SDS_P1;SDS_P2;PMS_P1;PMS_P2;Temp;Humidity;BMP_temperature;BMP_pressure;BME280_temperature;BME280_humidity;BME280_pressure;Samples;Min_cycle;Max_cycle;Signal;HPM_P1;HPM_P2
2021/10/17 00:00:08;;;;;;;0.20;0.20;;;;;;;;;;5059575;28;20369;-91
2021/10/17 00:02:34;;;;;;;0.10;0.10;;;;;;;;;;5059070;28;20115;-91
2021/10/17 00:05:00;;;;;;;0.20;0.20;;;;;;;;;;5059134;28;20534;-91
2021/10/17 00:07:26;;;;;;;0.10;0.10;;;;;;;;;;5058935;28;20047;-91
2021/10/17 00:09:52;;;;;;;0.10;0.10;;;;;;;;;;5075715;28;20459;-90
2021/10/17 00:12:17;;;;;;;0.20;0.20;;;;;;;;;;5075743;28;20047;-91
2021/10/17 00:14:43;;;;;;;0.10;0.10;;;;;;;;;;5058812;28;20039;-91
2021/10/17 00:17:09;;;;;;;0.10;0.10;;;;;;;;;;5059061;28;20085;-91
2021/10/17 00:19:35;;;;;;;0.10;0.10;;;;;;;;;;5058749;28;20032;-91
2021/10/17 00:22:02;;;;;;;0.10;0.10;;;;;;;;;;5058850;28;20392;-91
2021/10/17 00:24:28;;;;;;;0.10;0.10;;;;;;;;;;5041954;28;20035;-93
2021/10/17 00:26:54;;;;;;;0.10;0.10;;;;;;;;;;5059372;28;20524;-92
2021/10/17 00:29:19;;;;;;;0.10;0.10;;;;;;;;;;5059372;28;20051;-92
2021/10/17 00:31:45;;;;;;;0.10;0.10;;;;;;;;;;5059469;28;20479;-92
2021/10/17 00:34:11;;;;;;;0.10;0.10;;;;;;;;;;5058909;28;20040;-92
2021/10/17 00:36:37;;;;;;;0.10;0.10;;;;;;;;;;5058917;28;20044;-92
2021/10/17 00:39:04;;;;;;;0.10;0.10;;;;;;;;;;5059090;28;20119;-92
2021/10/17 00:41:30;;;;;;;0.10;0.10;;;;;;;;;;5042299;28;20108;-92
2021/10/17 00:43:57;;;;;;;0.10;0.10;;;;;;;;;;5059106;28;20040;-93
2021/10/17 00:46:23;;;;;;;0.10;0.10;;;;;;;;;;5059424;28;20040;-93
2021/10/17 00:48:49;;;;;;;0.10;0.10;;;;;;;;;;5058919;28;20095;-93
2021/10/17 00:51:15;;;;;;;0.10;0.10;;;;;;;;;;5075234;28;20050;-93
2021/10/17 00:53:41;;;;;;;0.10;0.10;;;;;;;;;;5042214;28;20101;-92
2021/10/17 00:56:07;;;;;;;0.10;0.10;;;;;;;;;;5042091;28;20043;-91
2021/10/17 00:58:33;;;;;;;0.10;0.10;;;;;;;;;;5042217;28;20048;-93
2021/10/17 01:00:59;;;;;;;0.10;0.10;;;;;;;;;;5058485;28;20076;-92
2021/10/17 01:03:26;;;;;;;0.10;0.10;;;;;;;;;;5075300;28;20058;-93
2021/10/17 01:05:53;;;;;;;0.10;0.10;;;;;;;;;;5042078;28;20131;-92
2021/10/17 01:08:19;;;;;;;0.10;0.10;;;;;;;;;;5075086;28;20543;-92
2021/10/17 01:10:45;;;;;;;0.32;0.32;;;;;;;;;;5058882;28;20074;-92
2021/10/17 01:13:17;;;;;;;0.10;0.10;;;;;;;;;;5041776;28;20071;-92
2021/10/17 01:15:45;;;;;;;0.10;0.10;;;;;;;;;;5058361;28;20040;-92
2021/10/17 01:18:11;;;;;;;0.10;0.10;;;;;;;;;;5041923;28;20040;-92
2021/10/17 01:20:37;;;;;;;0.10;0.10;;;;;;;;;;5058739;28;20077;-94
2021/10/17 01:23:03;;;;;;;0.10;0.10;;;;;;;;;;5075165;28;20040;-94
2021/10/17 01:25:29;;;;;;;0.10;0.10;;;;;;;;;;5058724;28;20067;-94
2021/10/17 01:27:54;;;;;;;0.10;0.10;;;;;;;;;;5042622;28;20403;-94
2021/10/17 01:30:21;;;;;;;0.10;0.10;;;;;;;;;;5058141;28;20060;-92
2021/10/17 01:32:46;;;;;;;0.10;0.10;;;;;;;;;;5058304;28;20052;-93
2021/10/17 01:35:12;;;;;;;0.10;0.10;;;;;;;;;;5040715;28;20055;-92
2021/10/17 01:37:38;;;;;;;0.10;0.10;;;;;;;;;;5074713;28;20040;-91
2021/10/17 01:40:05;;;;;;;0.20;0.20;;;;;;;;;;5058019;28;20090;-91
2021/10/17 01:42:31;;;;;;;0.20;0.20;;;;;;;;;;5058252;28;20040;-92
2021/10/17 01:44:57;;;;;;;0.10;0.10;;;;;;;;;;5074730;28;20040;-92
2021/10/17 01:47:22;;;;;;;0.10;0.10;;;;;;;;;;5057893;28;20040;-91
2021/10/17 01:49:48;;;;;;;0.95;0.20;;;;;;;;;;5074485;28;20040;-92
2021/10/17 01:52:14;;;;;;;0.10;0.10;;;;;;;;;;5057985;28;20082;-93
2021/10/17 01:54:40;;;;;;;0.10;0.10;;;;;;;;;;5058177;28;20043;-92
2021/10/17 01:57:08;;;;;;;0.10;0.10;;;;;;;;;;5058011;28;20051;-91
2021/10/17 01:59:34;;;;;;;0.10;0.10;;;;;;;;;;5041393;28;20044;-92
2021/10/17 02:02:00;;;;;;;0.10;0.10;;;;;;;;;;5040975;28;20048;-91
2021/10/17 02:04:25;;;;;;;0.10;0.10;;;;;;;;;;5074381;28;20044;-94
2021/10/17 02:06:51;;;;;;;0.10;0.10;;;;;;;;;;5074502;28;20069;-91
2021/10/17 02:09:17;;;;;;;0.10;0.10;;;;;;;;;;5074314;28;20487;-92
2021/10/17 02:11:43;;;;;;;0.10;0.10;;;;;;;;;;5057647;28;20040;-92
2021/10/17 02:14:09;;;;;;;0.10;0.10;;;;;;;;;;5057711;28;20048;-91
2021/10/17 02:16:35;;;;;;;0.10;0.10;;;;;;;;;;5057674;28;20044;-92
2021/10/17 02:19:01;;;;;;;0.10;0.10;;;;;;;;;;5057738;28;20047;-91
2021/10/17 02:21:27;;;;;;;0.10;0.10;;;;;;;;;;5057580;28;20046;-92
2021/10/17 02:23:53;;;;;;;0.10;0.10;;;;;;;;;;5057568;28;20047;-91
2021/10/17 02:26:19;;;;;;;0.10;0.10;;;;;;;;;;5057610;28;20039;-90
2021/10/17 02:28:45;;;;;;;0.57;0.40;;;;;;;;;;5074291;28;20456;-92
2021/10/17 02:31:11;;;;;;;0.10;0.10;;;;;;;;;;5058159;28;20147;-93
2021/10/17 02:33:39;;;;;;;0.40;0.40;;;;;;;;;;5074546;28;20048;-93
2021/10/17 02:36:05;;;;;;;2.55;0.40;;;;;;;;;;5041216;28;20403;-92
2021/10/17 02:38:31;;;;;;;0.10;0.10;;;;;;;;;;5057840;28;20050;-92
2021/10/17 02:40:57;;;;;;;0.10;0.10;;;;;;;;;;5074086;28;20083;-91
2021/10/17 02:43:23;;;;;;;0.30;0.30;;;;;;;;;;5057264;28;20043;-90
2021/10/17 02:45:48;;;;;;;0.10;0.10;;;;;;;;;;5073605;28;20040;-91
2021/10/17 02:48:14;;;;;;;0.17;0.17;;;;;;;;;;5060177;28;20389;-91
2021/10/17 02:50:40;;;;;;;0.10;0.10;;;;;;;;;;5044173;28;20040;-90
2021/10/17 02:53:06;;;;;;;0.20;0.20;;;;;;;;;;5060831;28;20090;-92
2021/10/17 02:55:32;;;;;;;0.10;0.10;;;;;;;;;;5060639;28;20079;-92
2021/10/17 02:57:58;;;;;;;0.20;0.20;;;;;;;;;;5060520;28;20035;-91
2021/10/17 03:00:24;;;;;;;0.10;0.10;;;;;;;;;;5061094;28;20047;-91
2021/10/17 03:02:50;;;;;;;0.20;0.20;;;;;;;;;;5060842;28;20177;-91
2021/10/17 03:05:16;;;;;;;0.10;0.10;;;;;;;;;;5077334;28;20044;-91
2021/10/17 03:07:42;;;;;;;0.10;0.10;;;;;;;;;;5077267;28;20036;-91
2021/10/17 03:10:08;;;;;;;0.10;0.10;;;;;;;;;;5060335;28;20046;-90
2021/10/17 03:12:34;;;;;;;0.10;0.10;;;;;;;;;;5060703;28;20434;-91
2021/10/17 03:15:00;;;;;;;0.10;0.10;;;;;;;;;;5077397;28;20032;-91
2021/10/17 03:17:26;;;;;;;0.10;0.10;;;;;;;;;;5060993;28;20457;-91
2021/10/17 03:19:54;;;;;;;0.10;0.10;;;;;;;;;;5060399;28;20072;-91
2021/10/17 03:22:20;;;;;;;0.10;0.10;;;;;;;;;;5043712;28;20403;-92
2021/10/17 03:24:46;;;;;;;0.17;0.17;;;;;;;;;;5060324;28;20115;-92
2021/10/17 03:27:12;;;;;;;0.10;0.10;;;;;;;;;;5043686;28;20042;-92
2021/10/17 03:29:38;;;;;;;0.10;0.10;;;;;;;;;;5059992;28;20052;-92
2021/10/17 03:32:04;;;;;;;0.10;0.10;;;;;;;;;;5076780;28;20048;-94
2021/10/17 03:34:30;;;;;;;0.10;0.10;;;;;;;;;;5047090;28;20048;-91
2021/10/17 03:36:56;;;;;;;0.10;0.10;;;;;;;;;;5060293;28;20062;-92
2021/10/17 03:39:22;;;;;;;0.10;0.10;;;;;;;;;;5076593;28;20040;-92
2021/10/17 03:41:48;;;;;;;0.10;0.10;;;;;;;;;;5059832;28;20428;-92
2021/10/17 03:44:14;;;;;;;0.10;0.10;;;;;;;;;;5076815;28;20055;-92
2021/10/17 03:46:40;;;;;;;0.10;0.10;;;;;;;;;;5043479;28;20493;-91
2021/10/17 03:49:06;;;;;;;0.10;0.10;;;;;;;;;;5059785;28;20487;-92
2021/10/17 03:51:32;;;;;;;0.10;0.10;;;;;;;;;;5059944;28;20036;-92
2021/10/17 03:53:57;;;;;;;0.10;0.10;;;;;;;;;;5076401;28;20045;-91
2021/10/17 03:56:23;;;;;;;0.10;0.10;;;;;;;;;;5076145;28;20495;-91
2021/10/17 03:58:49;;;;;;;0.10;0.10;;;;;;;;;;5059023;28;20437;-91
2021/10/17 04:01:15;;;;;;;0.10;0.10;;;;;;;;;;5059416;28;20032;-91
2021/10/17 04:03:41;;;;;;;0.10;0.10;;;;;;;;;;5059711;28;20074;-92
2021/10/17 04:06:07;;;;;;;0.10;0.10;;;;;;;;;;5076046;28;20036;-92
2021/10/17 04:08:33;;;;;;;0.10;0.10;;;;;;;;;;5059710;28;20441;-92
2021/10/17 04:10:59;;;;;;;0.10;0.10;;;;;;;;;;5059429;28;20544;-91
2021/10/17 04:13:25;;;;;;;0.10;0.10;;;;;;;;;;5076144;28;20040;-92
2021/10/17 04:15:51;;;;;;;0.10;0.10;;;;;;;;;;5076275;28;20040;-92
2021/10/17 04:18:17;;;;;;;0.10;0.10;;;;;;;;;;5076136;28;20059;-92
2021/10/17 04:20:43;;;;;;;0.10;0.10;;;;;;;;;;5075901;28;20412;-93
2021/10/17 04:23:09;;;;;;;0.10;0.10;;;;;;;;;;5059541;28;20036;-91
2021/10/17 04:25:35;;;;;;;0.10;0.10;;;;;;;;;;5059166;28;20040;-92
2021/10/17 04:28:01;;;;;;;0.10;0.10;;;;;;;;;;5059434;28;20040;-91
2021/10/17 04:30:27;;;;;;;0.10;0.10;;;;;;;;;;5058971;28;20098;-91
2021/10/17 04:32:53;;;;;;;0.10;0.10;;;;;;;;;;5075891;28;20043;-91
2021/10/17 04:35:19;;;;;;;0.10;0.10;;;;;;;;;;5058665;28;20063;-92
2021/10/17 04:37:45;;;;;;;0.20;0.20;;;;;;;;;;5059242;28;20140;-92
2021/10/17 04:40:11;;;;;;;0.10;0.10;;;;;;;;;;5059113;28;20047;-92
2021/10/17 04:42:37;;;;;;;0.10;0.10;;;;;;;;;;5058940;28;20070;-92
2021/10/17 04:45:06;;;;;;;0.10;0.10;;;;;;;;;;5058823;28;20039;-92
2021/10/17 04:47:32;;;;;;;0.10;0.10;;;;;;;;;;5059014;28;20514;-91
2021/10/17 04:49:58;;;;;;;0.10;0.10;;;;;;;;;;5042067;28;20487;-92
2021/10/17 04:52:24;;;;;;;0.10;0.10;;;;;;;;;;5058585;28;20043;-91
2021/10/17 04:54:50;;;;;;;0.10;0.10;;;;;;;;;;5058287;28;20394;-92
2021/10/17 04:57:16;;;;;;;0.10;0.10;;;;;;;;;;5059128;28;20184;-91
2021/10/17 04:59:42;;;;;;;0.10;0.10;;;;;;;;;;5075018;28;20083;-91
2021/10/17 05:02:08;;;;;;;0.10;0.10;;;;;;;;;;5058516;28;20177;-91
2021/10/17 05:04:38;;;;;;;0.22;0.22;;;;;;;;;;5058606;28;20139;-91
2021/10/17 05:07:04;;;;;;;0.10;0.10;;;;;;;;;;5058222;28;20082;-93
2021/10/17 05:09:30;;;;;;;0.10;0.10;;;;;;;;;;5075261;28;20071;-91
2021/10/17 05:11:55;;;;;;;0.10;0.10;;;;;;;;;;5058427;28;20099;-92
2021/10/17 05:14:21;;;;;;;0.10;0.10;;;;;;;;;;5074883;28;20043;-91
2021/10/17 05:16:47;;;;;;;0.10;0.10;;;;;;;;;;5075140;28;20048;-92
2021/10/17 05:19:13;;;;;;;0.35;0.35;;;;;;;;;;5075166;28;20036;-92
2021/10/17 05:21:39;;;;;;;0.10;0.10;;;;;;;;;;5074581;28;20036;-90
2021/10/17 05:24:05;;;;;;;0.10;0.10;;;;;;;;;;5057015;28;20052;-90
2021/10/17 05:26:31;;;;;;;0.30;0.30;;;;;;;;;;5074451;28;20036;-90
2021/10/17 05:28:57;;;;;;;0.10;0.10;;;;;;;;;;5073913;28;20051;-90
2021/10/17 05:31:23;;;;;;;0.55;0.35;;;;;;;;;;5057890;28;20040;-91
2021/10/17 05:33:49;;;;;;;0.13;0.13;;;;;;;;;;5057690;28;20399;-90
2021/10/17 05:36:15;;;;;;;0.22;0.20;;;;;;;;;;5041350;28;20048;-90
2021/10/17 05:38:41;;;;;;;0.10;0.10;;;;;;;;;;5041259;28;20127;-90
2021/10/17 05:41:07;;;;;;;0.10;0.10;;;;;;;;;;5074222;28;20044;-90
2021/10/17 05:43:34;;;;;;;0.25;0.17;;;;;;;;;;5057754;28;20100;-91
2021/10/17 05:46:00;;;;;;;0.10;0.10;;;;;;;;;;5057700;28;20036;-91
2021/10/17 05:48:26;;;;;;;0.10;0.10;;;;;;;;;;5058258;28;20042;-92
2021/10/17 05:50:52;;;;;;;0.20;0.20;;;;;;;;;;5074499;28;20043;-93
2021/10/17 05:53:18;;;;;;;0.20;0.20;;;;;;;;;;5074723;28;20139;-93
2021/10/17 05:55:44;;;;;;;0.10;0.10;;;;;;;;;;5058176;28;20036;-93
2021/10/17 05:58:10;;;;;;;0.10;0.10;;;;;;;;;;5058025;28;20040;-91
2021/10/17 06:00:36;;;;;;;0.10;0.10;;;;;;;;;;5074169;28;20040;-90
2021/10/17 06:03:02;;;;;;;0.10;0.10;;;;;;;;;;5057381;28;20043;-91
2021/10/17 06:05:28;;;;;;;0.10;0.10;;;;;;;;;;5057578;28;20032;-90
2021/10/17 06:07:53;;;;;;;0.10;0.10;;;;;;;;;;5073892;28;20399;-91
2021/10/17 06:10:19;;;;;;;0.10;0.10;;;;;;;;;;5041445;28;20118;-91
2021/10/17 06:12:45;;;;;;;0.10;0.10;;;;;;;;;;5074277;28;20043;-91
2021/10/17 06:15:11;;;;;;;0.10;0.10;;;;;;;;;;5057597;28;20372;-91
2021/10/17 06:17:37;;;;;;;0.10;0.10;;;;;;;;;;5057557;28;20345;-91
2021/10/17 06:20:03;;;;;;;0.10;0.10;;;;;;;;;;5057336;28;20728;-91
2021/10/17 06:22:29;;;;;;;0.10;0.10;;;;;;;;;;5042775;28;20093;-91
2021/10/17 06:24:55;;;;;;;0.10;0.10;;;;;;;;;;5061210;28;20040;-91
2021/10/17 06:27:21;;;;;;;0.10;0.10;;;;;;;;;;5061385;28;20044;-90
2021/10/17 06:29:47;;;;;;;0.10;0.10;;;;;;;;;;5077464;28;20048;-91
2021/10/17 06:32:13;;;;;;;0.10;0.10;;;;;;;;;;5077761;28;20499;-91
2021/10/17 06:34:39;;;;;;;0.10;0.10;;;;;;;;;;5060905;28;20040;-91
2021/10/17 06:37:05;;;;;;;0.10;0.10;;;;;;;;;;5077518;28;20166;-91
2021/10/17 06:39:31;;;;;;;0.10;0.10;;;;;;;;;;5060942;28;20487;-89
2021/10/17 06:41:57;;;;;;;0.10;0.10;;;;;;;;;;5060832;28;20091;-90
2021/10/17 06:44:23;;;;;;;0.10;0.10;;;;;;;;;;5061018;28;20040;-90
2021/10/17 06:46:50;;;;;;;0.10;0.10;;;;;;;;;;5077783;28;20075;-89
2021/10/17 06:49:15;;;;;;;0.10;0.10;;;;;;;;;;5043982;28;20071;-89
2021/10/17 06:51:41;;;;;;;0.10;0.10;;;;;;;;;;5077616;28;20063;-89
2021/10/17 06:54:07;;;;;;;0.10;0.10;;;;;;;;;;5044123;28;20050;-90
2021/10/17 06:56:33;;;;;;;0.10;0.10;;;;;;;;;;5061140;28;20044;-89
2021/10/17 06:58:59;;;;;;;0.10;0.10;;;;;;;;;;5060648;28;20036;-89
2021/10/17 07:01:25;;;;;;;0.10;0.10;;;;;;;;;;5077050;28;20399;-89
2021/10/17 07:03:51;;;;;;;0.10;0.10;;;;;;;;;;5060935;28;20043;-89
2021/10/17 07:06:17;;;;;;;0.10;0.10;;;;;;;;;;5060583;28;20040;-88
2021/10/17 07:08:43;;;;;;;0.10;0.10;;;;;;;;;;5060350;28;20493;-87
2021/10/17 07:11:09;;;;;;;0.10;0.10;;;;;;;;;;5076319;28;20044;-86
2021/10/17 07:13:35;;;;;;;0.10;0.10;;;;;;;;;;5076212;28;20067;-86
2021/10/17 07:16:01;;;;;;;0.10;0.10;;;;;;;;;;5059940;28;20051;-86
2021/10/17 07:18:27;;;;;;;0.10;0.10;;;;;;;;;;5076058;28;20487;-87
2021/10/17 07:20:53;;;;;;;0.10;0.10;;;;;;;;;;5059499;28;20475;-86
2021/10/17 07:23:19;;;;;;;0.10;0.10;;;;;;;;;;5076109;28;20112;-85
2021/10/17 07:25:45;;;;;;;0.10;0.10;;;;;;;;;;5075894;28;20040;-85
2021/10/17 07:28:11;;;;;;;0.10;0.10;;;;;;;;;;5043051;28;20054;-87
2021/10/17 07:30:37;;;;;;;0.10;0.10;;;;;;;;;;5042756;28;20048;-88
2021/10/17 07:33:03;;;;;;;0.17;0.17;;;;;;;;;;5041987;28;20131;-90
2021/10/17 07:35:29;;;;;;;0.10;0.10;;;;;;;;;;5059588;28;20040;-87
2021/10/17 07:37:58;;;;;;;0.10;0.10;;;;;;;;;;5059506;28;20061;-89
2021/10/17 07:40:24;;;;;;;0.20;0.20;;;;;;;;;;5059410;28;20051;-89
2021/10/17 07:42:50;;;;;;;0.10;0.10;;;;;;;;;;5042843;28;20040;-87
2021/10/17 07:45:16;;;;;;;0.10;0.10;;;;;;;;;;5059581;28;20054;-88
2021/10/17 07:47:42;;;;;;;0.22;0.22;;;;;;;;;;5075953;28;20075;-88
2021/10/17 07:50:09;;;;;;;0.10;0.10;;;;;;;;;;5059457;28;20564;-89
2021/10/17 07:52:36;;;;;;;0.10;0.10;;;;;;;;;;5075991;28;20075;-89
2021/10/17 07:55:05;;;;;;;0.10;0.10;;;;;;;;;;5059761;28;20051;-89
2021/10/17 07:57:31;;;;;;;0.10;0.10;;;;;;;;;;5060145;28;20048;-89
2021/10/17 07:59:57;;;;;;;0.10;0.10;;;;;;;;;;5059449;28;20042;-89
2021/10/17 08:02:23;;;;;;;0.20;0.20;;;;;;;;;;5059385;28;20040;-90
2021/10/17 08:04:49;;;;;;;0.10;0.10;;;;;;;;;;5059944;28;20036;-90
2021/10/17 08:07:15;;;;;;;0.10;0.10;;;;;;;;;;5060025;28;20036;-92
2021/10/17 08:09:41;;;;;;;0.45;0.20;;;;;;;;;;5075927;28;20078;-89
2021/10/17 08:12:07;;;;;;;0.10;0.10;;;;;;;;;;5059259;28;20403;-89
2021/10/17 08:14:33;;;;;;;0.10;0.10;;;;;;;;;;5058763;28;20090;-88
2021/10/17 08:16:59;;;;;;;0.10;0.10;;;;;;;;;;5042329;28;20476;-88
2021/10/17 08:19:25;;;;;;;0.17;0.17;;;;;;;;;;5059863;28;20040;-91
2021/10/17 08:21:51;;;;;;;0.30;0.30;;;;;;;;;;5059650;28;20047;-90
2021/10/17 08:24:17;;;;;;;0.20;0.20;;;;;;;;;;5059931;28;20040;-90
2021/10/17 08:26:43;;;;;;;0.20;0.20;;;;;;;;;;5059028;28;20110;-88
2021/10/17 08:29:09;;;;;;;0.10;0.10;;;;;;;;;;5058445;28;20052;-86
2021/10/17 08:31:35;;;;;;;0.10;0.10;;;;;;;;;;5074962;28;20056;-87
2021/10/17 08:34:01;;;;;;;0.10;0.10;;;;;;;;;;5075398;28;20046;-88
2021/10/17 08:36:27;;;;;;;0.68;0.30;;;;;;;;;;5058417;28;20036;-89
2021/10/17 08:38:53;;;;;;;0.10;0.10;;;;;;;;;;5058188;28;20479;-89
2021/10/17 08:41:19;;;;;;;0.10;0.10;;;;;;;;;;5074814;28;20040;-88
2021/10/17 08:43:45;;;;;;;0.20;0.20;;;;;;;;;;5057899;28;20040;-87
2021/10/17 08:46:11;;;;;;;0.10;0.10;;;;;;;;;;5057508;28;20120;-86
2021/10/17 08:48:37;;;;;;;0.10;0.10;;;;;;;;;;5057856;28;20043;-86
2021/10/17 08:51:04;;;;;;;0.10;0.10;;;;;;;;;;5057703;28;20050;-88
2021/10/17 08:53:30;;;;;;;0.10;0.10;;;;;;;;;;5074142;28;20078;-88
2021/10/17 08:55:56;;;;;;;0.10;0.10;;;;;;;;;;5074343;28;20044;-87
2021/10/17 08:58:22;;;;;;;0.10;0.10;;;;;;;;;;5074672;28;20600;-88
2021/10/17 09:00:48;;;;;;;0.15;0.15;;;;;;;;;;5057860;28;20487;-89
2021/10/17 09:03:15;;;;;;;0.10;0.10;;;;;;;;;;5074522;28;20032;-89
2021/10/17 09:05:44;;;;;;;0.10;0.10;;;;;;;;;;5057562;28;20427;-88
2021/10/17 09:08:11;;;;;;;0.10;0.10;;;;;;;;;;5057716;28;20111;-88
2021/10/17 09:10:37;;;;;;;0.10;0.10;;;;;;;;;;5040749;28;20484;-90
2021/10/17 09:13:13;;;;;;;0.10;0.10;;;;;;;;;;5073936;28;20045;-91
2021/10/17 09:15:39;;;;;;;0.10;0.10;;;;;;;;;;5037299;28;20041;-92
2021/10/17 09:18:06;;;;;;;1.90;1.00;;;;;;;;;;5057354;28;20063;-94
2021/10/17 09:20:33;;;;;;;0.10;0.10;;;;;;;;;;5053176;28;20039;-92
2021/10/17 09:23:00;;;;;;;0.10;0.10;;;;;;;;;;5057781;28;20042;-93
2021/10/17 09:25:33;;;;;;;0.10;0.10;;;;;;;;;;5056096;28;20395;-93
2021/10/17 09:27:59;;;;;;;0.10;0.10;;;;;;;;;;5037974;28;20051;-93
2021/10/17 09:30:25;;;;;;;0.10;0.10;;;;;;;;;;5021794;28;20128;-95
2021/10/17 09:32:51;;;;;;;0.10;0.10;;;;;;;;;;5022406;28;20067;-93
2021/10/17 09:35:17;;;;;;;0.10;0.10;;;;;;;;;;5054533;28;20393;-94
2021/10/17 09:37:44;;;;;;;0.10;0.10;;;;;;;;;;5023361;28;20083;-94
2021/10/17 09:40:19;;;;;;;0.10;0.10;;;;;;;;;;5021483;28;20036;-93
2021/10/17 09:43:04;;;;;;;0.35;0.28;;;;;;;;;;5022894;28;20052;-93
2021/10/17 09:45:30;;;;;;;0.10;0.10;;;;;;;;;;5064572;28;20043;-92
2021/10/17 09:47:56;;;;;;;0.15;0.15;;;;;;;;;;5057274;28;20491;-93
2021/10/17 09:50:22;;;;;;;0.10;0.10;;;;;;;;;;5027915;28;20046;-94
2021/10/17 09:52:56;;;;;;;0.10;0.10;;;;;;;;;;5021973;28;20487;-91
2021/10/17 09:55:22;;;;;;;0.20;0.20;;;;;;;;;;5072680;28;20115;-95
2021/10/17 09:57:47;;;;;;;0.10;0.10;;;;;;;;;;5045295;28;20479;-94
2021/10/17 10:00:14;;;;;;;0.10;0.10;;;;;;;;;;5061637;28;20044;-93
2021/10/17 10:02:41;;;;;;;0.10;0.10;;;;;;;;;;5061857;28;20071;-93
2021/10/17 10:05:07;;;;;;;0.10;0.10;;;;;;;;;;5045059;28;20052;-93
2021/10/17 10:07:33;;;;;;;0.10;0.10;;;;;;;;;;5061817;28;20040;-93
2021/10/17 10:10:00;;;;;;;0.10;0.10;;;;;;;;;;5062115;28;20047;-93
2021/10/17 10:12:26;;;;;;;0.10;0.10;;;;;;;;;;5046059;28;20399;-91
2021/10/17 10:14:54;;;;;;;0.10;0.10;;;;;;;;;;5078269;28;20040;-92
2021/10/17 10:17:21;;;;;;;0.10;0.10;;;;;;;;;;5056529;28;20037;-93
2021/10/17 10:19:47;;;;;;;0.10;0.10;;;;;;;;;;5032137;28;20048;-92
2021/10/17 10:22:13;;;;;;;0.10;0.10;;;;;;;;;;5072773;28;20100;-92
2021/10/17 10:24:39;;;;;;;0.10;0.10;;;;;;;;;;5062781;28;20052;-92
2021/10/17 10:27:05;;;;;;;0.10;0.10;;;;;;;;;;5062515;28;20116;-92
2021/10/17 10:29:32;;;;;;;0.10;0.10;;;;;;;;;;5058384;28;20040;-90
2021/10/17 10:32:01;;;;;;;0.10;0.10;;;;;;;;;;5058550;28;20484;-91
2021/10/17 10:34:36;;;;;;;0.10;0.10;;;;;;;;;;5043188;28;20039;-93
2021/10/17 10:37:12;;;;;;;0.10;0.10;;;;;;;;;;5062623;28;20399;-93
2021/10/17 10:39:38;;;;;;;0.10;0.10;;;;;;;;;;5041926;28;20044;-94
2021/10/17 10:42:24;;;;;;;0.10;0.10;;;;;;;;;;5047052;28;20043;-92
2021/10/17 10:44:51;;;;;;;0.10;0.10;;;;;;;;;;5049647;28;20035;-95
2021/10/17 10:47:21;;;;;;;0.10;0.10;;;;;;;;;;5064393;28;20040;-94
2021/10/17 10:49:50;;;;;;;0.10;0.10;;;;;;;;;;5032209;28;20582;-92
2021/10/17 10:52:35;;;;;;;0.10;0.10;;;;;;;;;;5073877;28;20051;-93
2021/10/17 10:55:02;;;;;;;0.10;0.10;;;;;;;;;;5077823;28;20344;-93
2021/10/17 10:57:31;;;;;;;0.10;0.10;;;;;;;;;;5044515;28;20040;-93
2021/10/17 10:59:59;;;;;;;0.10;0.10;;;;;;;;;;5061151;28;20040;-94
2021/10/17 11:02:26;;;;;;;1.02;0.15;;;;;;;;;;5075399;28;20040;-93
2021/10/17 11:05:02;;;;;;;0.10;0.10;;;;;;;;;;5053273;28;20125;-92
2021/10/17 11:07:29;;;;;;;0.40;0.40;;;;;;;;;;5056026;28;20491;-93
2021/10/17 11:09:57;;;;;;;0.10;0.10;;;;;;;;;;5060681;28;20506;-92
2021/10/17 11:12:39;;;;;;;0.10;0.10;;;;;;;;;;5051575;28;20541;-92
2021/10/17 11:15:08;;;;;;;0.10;0.10;;;;;;;;;;5071474;28;20098;-94
2021/10/17 11:17:34;;;;;;;0.30;0.20;;;;;;;;;;5024430;28;20041;-94
2021/10/17 11:20:00;;;;;;;0.10;0.10;;;;;;;;;;5072062;28;20119;-95
2021/10/17 11:22:26;;;;;;;0.15;0.15;;;;;;;;;;5047551;28;20028;-93
2021/10/17 11:24:53;;;;;;;0.20;0.20;;;;;;;;;;5044189;28;20396;-93
2021/10/17 11:27:19;;;;;;;0.10;0.10;;;;;;;;;;5030406;28;20083;-94
2021/10/17 11:29:45;;;;;;;0.22;0.22;;;;;;;;;;5058400;28;20059;-92
2021/10/17 11:32:17;;;;;;;0.10;0.10;;;;;;;;;;5038232;28;20128;-93
2021/10/17 11:35:05;;;;;;;0.30;0.30;;;;;;;;;;5043850;28;20040;-93
2021/10/17 11:37:32;;;;;;;0.10;0.10;;;;;;;;;;5087906;28;20052;-92
2021/10/17 11:39:58;;;;;;;0.10;0.10;;;;;;;;;;5060036;28;20040;-94
2021/10/17 11:42:24;;;;;;;0.10;0.10;;;;;;;;;;5077309;28;20491;-95
2021/10/17 11:44:55;;;;;;;0.10;0.10;;;;;;;;;;5043787;28;20121;-95
2021/10/17 11:47:21;;;;;;;0.10;0.10;;;;;;;;;;5059868;28;20028;-95
2021/10/17 11:49:50;;;;;;;0.10;0.10;;;;;;;;;;5060256;28;20040;-94
2021/10/17 11:52:16;;;;;;;0.10;0.10;;;;;;;;;;5059980;28;20126;-93
2021/10/17 11:54:46;;;;;;;0.10;0.10;;;;;;;;;;5030297;28;20079;-94
2021/10/17 11:57:28;;;;;;;0.10;0.10;;;;;;;;;;5043093;28;20071;-94
2021/10/17 12:00:04;;;;;;;0.10;0.10;;;;;;;;;;5043473;28;20328;-94
2021/10/17 12:02:31;;;;;;;0.10;0.10;;;;;;;;;;5060692;28;20349;-94
2021/10/17 12:04:58;;;;;;;0.10;0.10;;;;;;;;;;5058552;28;20078;-94
2021/10/17 12:07:25;;;;;;;0.10;0.10;;;;;;;;;;5045237;28;20043;-93
2021/10/17 12:09:51;;;;;;;0.10;0.10;;;;;;;;;;5076576;28;20044;-94
2021/10/17 12:18:02;;;;;;;0.10;0.10;;;;;;;;;;5092645;28;20059;-94
2021/10/17 12:20:30;;;;;;;0.52;0.52;;;;;;;;;;5043044;28;20210;-91
2021/10/17 12:22:56;;;;;;;0.10;0.10;;;;;;;;;;5042979;28;20036;-94
2021/10/17 12:25:22;;;;;;;0.10;0.10;;;;;;;;;;5060082;28;20044;-93
2021/10/17 12:27:49;;;;;;;0.10;0.10;;;;;;;;;;5043401;28;20402;-95
2021/10/17 12:30:19;;;;;;;0.10;0.10;;;;;;;;;;5043009;28;20036;-93
2021/10/17 12:32:49;;;;;;;0.20;0.20;;;;;;;;;;5043119;28;20046;-92
2021/10/17 12:35:26;;;;;;;0.10;0.10;;;;;;;;;;5075902;28;20050;-92
2021/10/17 12:37:52;;;;;;;0.10;0.10;;;;;;;;;;5059372;28;20047;-90
2021/10/17 12:40:18;;;;;;;0.10;0.10;;;;;;;;;;5042184;28;20036;-89
2021/10/17 12:42:45;;;;;;;0.10;0.10;;;;;;;;;;5041962;28;20077;-92
2021/10/17 12:45:12;;;;;;;0.20;0.20;;;;;;;;;;5059308;28;20043;-90
2021/10/17 12:47:39;;;;;;;0.10;0.10;;;;;;;;;;5042871;28;20062;-94
2021/10/17 12:50:12;;;;;;;0.10;0.10;;;;;;;;;;5030019;28;20036;-93
2021/10/17 12:52:38;;;;;;;0.10;0.10;;;;;;;;;;5039354;28;20041;-94
2021/10/17 12:55:04;;;;;;;0.25;0.20;;;;;;;;;;5055798;28;20056;-92
2021/10/17 12:57:30;;;;;;;0.10;0.10;;;;;;;;;;5038835;28;20055;-93
2021/10/17 12:59:57;;;;;;;0.10;0.10;;;;;;;;;;5039448;28;20093;-89
2021/10/17 13:02:23;;;;;;;0.10;0.10;;;;;;;;;;5055624;28;20106;-93
2021/10/17 13:04:49;;;;;;;0.10;0.10;;;;;;;;;;5055311;28;20083;-91
2021/10/17 13:07:21;;;;;;;0.10;0.10;;;;;;;;;;5055247;28;20068;-92
2021/10/17 13:09:54;;;;;;;0.10;0.10;;;;;;;;;;5038503;28;20127;-90
2021/10/17 13:12:24;;;;;;;0.10;0.10;;;;;;;;;;5038600;28;20044;-91
2021/10/17 13:15:06;;;;;;;0.35;0.35;;;;;;;;;;5038414;28;20044;-93
2021/10/17 13:17:33;;;;;;;0.10;0.10;;;;;;;;;;5039105;28;20056;-89
2021/10/17 13:19:59;;;;;;;0.28;0.28;;;;;;;;;;5038323;28;20090;-91
2021/10/17 13:22:26;;;;;;;0.10;0.10;;;;;;;;;;5038694;28;20037;-93
2021/10/17 13:24:52;;;;;;;0.10;0.10;;;;;;;;;;5058665;28;20047;-93
2021/10/17 13:27:18;;;;;;;0.10;0.10;;;;;;;;;;5057421;28;20043;-96
2021/10/17 13:29:44;;;;;;;0.10;0.10;;;;;;;;;;5057157;28;20048;-95
2021/10/17 13:32:11;;;;;;;0.10;0.10;;;;;;;;;;5054400;28;20475;-95
2021/10/17 13:34:38;;;;;;;0.10;0.10;;;;;;;;;;5038314;28;20052;-94
2021/10/17 13:37:04;;;;;;;0.10;0.10;;;;;;;;;;5054862;28;20048;-92
2021/10/17 13:39:30;;;;;;;0.10;0.10;;;;;;;;;;5038330;28;20062;-93
2021/10/17 13:41:56;;;;;;;0.20;0.20;;;;;;;;;;5055510;28;20040;-92
2021/10/17 13:44:26;;;;;;;0.10;0.10;;;;;;;;;;5055636;28;20124;-93
2021/10/17 13:46:51;;;;;;;0.10;0.10;;;;;;;;;;5039146;28;20055;-93
2021/10/17 13:49:19;;;;;;;0.10;0.10;;;;;;;;;;5055128;28;20177;-93
2021/10/17 13:51:45;;;;;;;0.10;0.10;;;;;;;;;;5055307;28;20131;-92
2021/10/17 13:54:11;;;;;;;0.10;0.10;;;;;;;;;;5054942;28;20045;-93
2021/10/17 13:56:38;;;;;;;0.10;0.10;;;;;;;;;;5038682;28;20047;-92
2021/10/17 13:59:05;;;;;;;0.10;0.10;;;;;;;;;;5021824;28;20051;-94
2021/10/17 14:01:31;;;;;;;0.10;0.10;;;;;;;;;;5038868;28;20502;-94
2021/10/17 14:03:57;;;;;;;0.10;0.10;;;;;;;;;;5038114;28;20037;-94
2021/10/17 14:06:23;;;;;;;0.10;0.10;;;;;;;;;;5038174;28;20058;-93
2021/10/17 14:08:49;;;;;;;0.20;0.20;;;;;;;;;;5038309;28;20100;-93
2021/10/17 14:11:15;;;;;;;0.10;0.10;;;;;;;;;;5054804;28;20072;-93
2021/10/17 14:13:43;;;;;;;0.20;0.20;;;;;;;;;;5038291;28;20037;-93
2021/10/17 14:16:09;;;;;;;0.10;0.10;;;;;;;;;;5054252;28;20063;-94
2021/10/17 14:18:37;;;;;;;0.10;0.10;;;;;;;;;;5038198;28;20048;-93
2021/10/17 14:21:05;;;;;;;0.10;0.10;;;;;;;;;;5054851;28;20131;-93
2021/10/17 14:23:31;;;;;;;0.10;0.10;;;;;;;;;;5022284;28;20086;-93
2021/10/17 14:25:57;;;;;;;0.10;0.10;;;;;;;;;;5054881;28;20043;-93
2021/10/17 14:28:23;;;;;;;0.10;0.10;;;;;;;;;;5038326;28;20033;-93
2021/10/17 14:30:49;;;;;;;0.10;0.10;;;;;;;;;;5039578;28;20078;-94
2021/10/17 14:33:15;;;;;;;0.17;0.17;;;;;;;;;;5054916;28;20463;-93
2021/10/17 14:35:41;;;;;;;0.10;0.10;;;;;;;;;;5038134;28;20127;-95
2021/10/17 14:38:07;;;;;;;0.10;0.10;;;;;;;;;;5039699;28;20051;-94
2021/10/17 14:40:33;;;;;;;0.20;0.20;;;;;;;;;;5057089;28;20067;-94
2021/10/17 14:43:00;;;;;;;0.20;0.20;;;;;;;;;;5023155;28;20043;-95
2021/10/17 14:45:27;;;;;;;0.10;0.10;;;;;;;;;;5040980;28;20037;-94